sensor_id;sensor_type;location;lat;lon;timestamp;pressure;altitude;pressure_sealevel;temperature;humidity
64862;BME280;62652;42.274;-71.436;2023-02-13T00:00:01;100660.0;;;6.277777777777776;48.4
64862;BME280;62652;42.274;-71.436;2023-02-13T00:01:00;100660.0;;;6.277777777777776;48.4
64862;BME280;62652;42.274;-71.436;2023-02-13T00:02:01;100660.0;;;6.222222222222224;48.7
64862;BME280;62652;42.274;-71.436;2023-02-13T00:03:02;100670.0;;;6.111111111111111;48.8
64862;BME280;62652;42.274;-71.436;2023-02-13T00:04:00;100670.0;;;6.111111111111111;48.5
64862;BME280;62652;42.274;-71.436;2023-02-13T00:05:00;100660.0;;;6.111111111111111;48.6
64862;BME280;62652;42.274;-71.436;2023-02-13T00:06:01;100670.0;;;6.111111111111111;48.7
64862;BME280;62652;42.274;-71.436;2023-02-13T00:07:00;100670.0;;;5.888888888888889;49.7
64862;BME280;62652;42.274;-71.436;2023-02-13T00:08:01;100670.0;;;5.888888888888889;49.9
64862;BME280;62652;42.274;-71.436;2023-02-13T00:09:01;100680.0;;;5.888888888888889;49.8
64862;BME280;62652;42.274;-71.436;2023-02-13T00:10:01;100680.0;;;5.777777777777777;49.7
64862;BME280;62652;42.274;-71.436;2023-02-13T00:11:01;100680.0;;;5.7222222222222205;50.2
64862;BME280;62652;42.274;-71.436;2023-02-13T00:12:00;100670.0;;;5.7222222222222205;50.4
64862;BME280;62652;42.274;-71.436;2023-02-13T00:13:01;100670.0;;;5.7222222222222205;50.6
64862;BME280;62652;42.274;-71.436;2023-02-13T00:14:01;100670.0;;;5.611111111111112;51.0
64862;BME280;62652;42.274;-71.436;2023-02-13T00:15:01;100670.0;;;5.7222222222222205;50.4
64862;BME280;62652;42.274;-71.436;2023-02-13T00:16:03;100660.0;;;5.611111111111112;51.1
64862;BME280;62652;42.274;-71.436;2023-02-13T00:17:01;100660.0;;;5.611111111111112;51.9
64862;BME280;62652;42.274;-71.436;2023-02-13T00:18:02;100660.0;;;5.499999999999999;51.7
64862;BME280;62652;42.274;-71.436;2023-02-13T00:19:00;100660.0;;;5.611111111111112;51.0
64862;BME280;62652;42.274;-71.436;2023-02-13T00:20:00;100660.0;;;5.611111111111112;50.8
64862;BME280;62652;42.274;-71.436;2023-02-13T00:21:03;100650.0;;;5.611111111111112;51.1
64862;BME280;62652;42.274;-71.436;2023-02-13T00:22:01;100650.0;;;5.611111111111112;51.1
64862;BME280;62652;42.274;-71.436;2023-02-13T00:23:01;100650.0;;;5.611111111111112;51.2
64862;BME280;62652;42.274;-71.436;2023-02-13T00:24:01;100640.0;;;5.611111111111112;51.2
64862;BME280;62652;42.274;-71.436;2023-02-13T00:25:01;100650.0;;;5.499999999999999;51.6
64862;BME280;62652;42.274;-71.436;2023-02-13T00:26:05;100640.0;;;5.38888888888889;52.1
64862;BME280;62652;42.274;-71.436;2023-02-13T00:27:00;100640.0;;;5.277777777777778;52.7
64862;BME280;62652;42.274;-71.436;2023-02-13T00:28:01;100640.0;;;5.222222222222221;52.9
64862;BME280;62652;42.274;-71.436;2023-02-13T00:29:00;100630.0;;;5.222222222222221;53.2
64862;BME280;62652;42.274;-71.436;2023-02-13T00:30:01;100630.0;;;5.222222222222221;53.2
64862;BME280;62652;42.274;-71.436;2023-02-13T00:31:03;100620.0;;;5.222222222222221;53.3
64862;BME280;62652;42.274;-71.436;2023-02-13T00:32:01;100620.0;;;5.222222222222221;54.1
64862;BME280;62652;42.274;-71.436;2023-02-13T00:33:00;100620.0;;;5.222222222222221;54.0
64862;BME280;62652;42.274;-71.436;2023-02-13T00:34:01;100630.0;;;5.222222222222221;54.4
64862;BME280;62652;42.274;-71.436;2023-02-13T00:35:01;100630.0;;;5.222222222222221;55.2
64862;BME280;62652;42.274;-71.436;2023-02-13T00:36:01;100630.0;;;5.1111111111111125;54.6
64862;BME280;62652;42.274;-71.436;2023-02-13T00:37:01;100630.0;;;5.222222222222221;54.5
64862;BME280;62652;42.274;-71.436;2023-02-13T00:38:00;100630.0;;;5.222222222222221;54.7
64862;BME280;62652;42.274;-71.436;2023-02-13T00:39:01;100630.0;;;5.222222222222221;54.5
64862;BME280;62652;42.274;-71.436;2023-02-13T00:40:01;100630.0;;;5.1111111111111125;54.9
64862;BME280;62652;42.274;-71.436;2023-02-13T00:41:01;100630.0;;;5.1111111111111125;55.2
64862;BME280;62652;42.274;-71.436;2023-02-13T00:42:00;100630.0;;;5.0;55.6
64862;BME280;62652;42.274;-71.436;2023-02-13T00:43:00;100630.0;;;5.0;55.9
64862;BME280;62652;42.274;-71.436;2023-02-13T00:44:00;100620.0;;;4.8888888888888875;56.1
64862;BME280;62652;42.274;-71.436;2023-02-13T00:45:01;100620.0;;;5.0;56.6
64862;BME280;62652;42.274;-71.436;2023-02-13T00:46:01;100620.0;;;5.1111111111111125;56.2
64862;BME280;62652;42.274;-71.436;2023-02-13T00:47:01;100610.0;;;5.1111111111111125;56.1
64862;BME280;62652;42.274;-71.436;2023-02-13T00:48:00;100610.0;;;5.0;56.8
64862;BME280;62652;42.274;-71.436;2023-02-13T00:49:01;100610.0;;;4.8888888888888875;56.8
64862;BME280;62652;42.274;-71.436;2023-02-13T00:50:00;100610.0;;;4.8888888888888875;57.4
64862;BME280;62652;42.274;-71.436;2023-02-13T00:51:01;100610.0;;;4.722222222222222;57.8
64862;BME280;62652;42.274;-71.436;2023-02-13T00:52:00;100610.0;;;4.500000000000001;57.9
64862;BME280;62652;42.274;-71.436;2023-02-13T00:53:01;100610.0;;;4.500000000000001;58.1
64862;BME280;62652;42.274;-71.436;2023-02-13T00:54:01;100610.0;;;4.61111111111111;57.9
64862;BME280;62652;42.274;-71.436;2023-02-13T00:55:00;100610.0;;;4.500000000000001;58.2
64862;BME280;62652;42.274;-71.436;2023-02-13T00:56:01;100620.0;;;4.388888888888888;58.4
64862;BME280;62652;42.274;-71.436;2023-02-13T00:57:01;100610.0;;;4.500000000000001;58.2
64862;BME280;62652;42.274;-71.436;2023-02-13T00:58:01;100610.0;;;4.500000000000001;58.4
64862;BME280;62652;42.274;-71.436;2023-02-13T00:59:01;100610.0;;;4.500000000000001;58.4
64862;BME280;62652;42.274;-71.436;2023-02-13T01:00:01;100610.0;;;4.500000000000001;58.4
64862;BME280;62652;42.274;-71.436;2023-02-13T01:01:01;100600.0;;;4.500000000000001;58.5
64862;BME280;62652;42.274;-71.436;2023-02-13T01:02:01;100600.0;;;4.500000000000001;58.7
64862;BME280;62652;42.274;-71.436;2023-02-13T01:03:00;100600.0;;;4.500000000000001;58.8
64862;BME280;62652;42.274;-71.436;2023-02-13T01:04:01;100600.0;;;4.500000000000001;58.9
64862;BME280;62652;42.274;-71.436;2023-02-13T01:05:00;100600.0;;;4.388888888888888;58.9
64862;BME280;62652;42.274;-71.436;2023-02-13T01:06:01;100600.0;;;4.500000000000001;58.9
64862;BME280;62652;42.274;-71.436;2023-02-13T01:07:01;100600.0;;;4.388888888888888;59.3
64862;BME280;62652;42.274;-71.436;2023-02-13T01:08:01;100590.0;;;4.2777777777777795;59.6
64862;BME280;62652;42.274;-71.436;2023-02-13T01:09:02;100590.0;;;4.222222222222223;59.8
64862;BME280;62652;42.274;-71.436;2023-02-13T01:10:01;100590.0;;;4.222222222222223;60.5
64862;BME280;62652;42.274;-71.436;2023-02-13T01:11:00;100590.0;;;4.2777777777777795;60.4
64862;BME280;62652;42.274;-71.436;2023-02-13T01:12:00;100590.0;;;4.388888888888888;60.0
64862;BME280;62652;42.274;-71.436;2023-02-13T01:13:00;100590.0;;;4.388888888888888;59.9
64862;BME280;62652;42.274;-71.436;2023-02-13T01:14:00;100600.0;;;4.2777777777777795;60.3
64862;BME280;62652;42.274;-71.436;2023-02-13T01:15:01;100600.0;;;4.2777777777777795;60.4
64862;BME280;62652;42.274;-71.436;2023-02-13T01:16:01;100600.0;;;4.2777777777777795;60.5
64862;BME280;62652;42.274;-71.436;2023-02-13T01:17:01;100600.0;;;4.2777777777777795;60.7
64862;BME280;62652;42.274;-71.436;2023-02-13T01:18:01;100600.0;;;4.222222222222223;61.0
64862;BME280;62652;42.274;-71.436;2023-02-13T01:19:00;100600.0;;;4.2777777777777795;60.7
64862;BME280;62652;42.274;-71.436;2023-02-13T01:20:01;100600.0;;;4.222222222222223;61.2
64862;BME280;62652;42.274;-71.436;2023-02-13T01:21:04;100590.0;;;4.222222222222223;61.6
64862;BME280;62652;42.274;-71.436;2023-02-13T01:22:00;100590.0;;;4.111111111111111;62.2
64862;BME280;62652;42.274;-71.436;2023-02-13T01:23:00;100590.0;;;4.111111111111111;62.0
64862;BME280;62652;42.274;-71.436;2023-02-13T01:24:03;100600.0;;;4.111111111111111;62.2
64862;BME280;62652;42.274;-71.436;2023-02-13T01:25:01;100600.0;;;4.111111111111111;62.2
64862;BME280;62652;42.274;-71.436;2023-02-13T01:26:02;100600.0;;;4.000000000000002;62.5
64862;BME280;62652;42.274;-71.436;2023-02-13T01:27:01;100610.0;;;4.111111111111111;62.6
64862;BME280;62652;42.274;-71.436;2023-02-13T01:28:01;100610.0;;;3.888888888888889;63.0
64862;BME280;62652;42.274;-71.436;2023-02-13T01:29:01;100610.0;;;3.888888888888889;63.3
64862;BME280;62652;42.274;-71.436;2023-02-13T01:30:01;100610.0;;;4.111111111111111;62.9
64862;BME280;62652;42.274;-71.436;2023-02-13T01:31:01;100600.0;;;4.000000000000002;63.0
64862;BME280;62652;42.274;-71.436;2023-02-13T01:32:00;100600.0;;;3.888888888888889;63.4
64862;BME280;62652;42.274;-71.436;2023-02-13T01:33:01;100600.0;;;3.888888888888889;63.4
64862;BME280;62652;42.274;-71.436;2023-02-13T01:34:01;100590.0;;;3.7777777777777763;63.9
64862;BME280;62652;42.274;-71.436;2023-02-13T01:35:00;100590.0;;;3.7777777777777763;64.2
64862;BME280;62652;42.274;-71.436;2023-02-13T01:36:05;100590.0;;;3.7777777777777763;64.1
64862;BME280;62652;42.274;-71.436;2023-02-13T01:37:00;100590.0;;;3.7777777777777763;64.4
64862;BME280;62652;42.274;-71.436;2023-02-13T01:38:01;100590.0;;;3.7777777777777763;64.6
64862;BME280;62652;42.274;-71.436;2023-02-13T01:39:00;100590.0;;;3.7777777777777763;64.5
64862;BME280;62652;42.274;-71.436;2023-02-13T01:40:01;100600.0;;;3.7777777777777763;64.4
64862;BME280;62652;42.274;-71.436;2023-02-13T01:41:00;100600.0;;;3.888888888888889;64.2
64862;BME280;62652;42.274;-71.436;2023-02-13T01:42:01;100600.0;;;3.7777777777777763;64.5
64862;BME280;62652;42.274;-71.436;2023-02-13T01:43:01;100610.0;;;3.7777777777777763;64.9
64862;BME280;62652;42.274;-71.436;2023-02-13T01:44:01;100610.0;;;3.7222222222222237;66.0
64862;BME280;62652;42.274;-71.436;2023-02-13T01:45:03;100610.0;;;3.7222222222222237;66.2
64862;BME280;62652;42.274;-71.436;2023-02-13T01:46:01;100610.0;;;3.4999999999999982;66.3
64862;BME280;62652;42.274;-71.436;2023-02-13T01:47:00;100610.0;;;3.611111111111111;66.8
64862;BME280;62652;42.274;-71.436;2023-02-13T01:48:03;100610.0;;;3.611111111111111;66.2
64862;BME280;62652;42.274;-71.436;2023-02-13T01:49:09;100600.0;;;3.7222222222222237;66.3
64862;BME280;62652;42.274;-71.436;2023-02-13T01:50:06;100600.0;;;3.7777777777777763;65.2
64862;BME280;62652;42.274;-71.436;2023-02-13T01:51:04;100590.0;;;3.888888888888889;64.6
64862;BME280;62652;42.274;-71.436;2023-02-13T01:52:00;100590.0;;;3.7777777777777763;65.0
64862;BME280;62652;42.274;-71.436;2023-02-13T01:53:06;100590.0;;;3.7777777777777763;65.6
64862;BME280;62652;42.274;-71.436;2023-02-13T01:54:03;100590.0;;;3.7777777777777763;66.5
64862;BME280;62652;42.274;-71.436;2023-02-13T01:55:01;100580.0;;;3.611111111111111;66.8
64862;BME280;62652;42.274;-71.436;2023-02-13T01:56:04;100580.0;;;3.611111111111111;66.5
64862;BME280;62652;42.274;-71.436;2023-02-13T01:57:04;100580.0;;;3.611111111111111;66.3
64862;BME280;62652;42.274;-71.436;2023-02-13T01:58:05;100580.0;;;3.7222222222222237;67.4
64862;BME280;62652;42.274;-71.436;2023-02-13T01:59:04;100570.0;;;3.7222222222222237;66.5
64862;BME280;62652;42.274;-71.436;2023-02-13T02:00:04;100570.0;;;3.7222222222222237;66.7
64862;BME280;62652;42.274;-71.436;2023-02-13T02:01:01;100570.0;;;3.7222222222222237;67.0
64862;BME280;62652;42.274;-71.436;2023-02-13T02:02:01;100560.0;;;3.611111111111111;67.4
64862;BME280;62652;42.274;-71.436;2023-02-13T02:03:06;100560.0;;;3.4999999999999982;68.0
64862;BME280;62652;42.274;-71.436;2023-02-13T02:04:05;100560.0;;;3.611111111111111;67.2
64862;BME280;62652;42.274;-71.436;2023-02-13T02:05:01;100560.0;;;3.611111111111111;67.1
64862;BME280;62652;42.274;-71.436;2023-02-13T02:06:01;100570.0;;;3.611111111111111;67.3
64862;BME280;62652;42.274;-71.436;2023-02-13T02:07:03;100570.0;;;3.7222222222222237;67.6
64862;BME280;62652;42.274;-71.436;2023-02-13T02:08:03;100570.0;;;3.611111111111111;67.9
64862;BME280;62652;42.274;-71.436;2023-02-13T02:09:05;100570.0;;;3.611111111111111;67.3
64862;BME280;62652;42.274;-71.436;2023-02-13T02:10:02;100570.0;;;3.4999999999999982;67.3
64862;BME280;62652;42.274;-71.436;2023-02-13T02:11:06;100570.0;;;3.4999999999999982;67.5
64862;BME280;62652;42.274;-71.436;2023-02-13T02:12:05;100570.0;;;3.611111111111111;67.4
64862;BME280;62652;42.274;-71.436;2023-02-13T02:13:04;100570.0;;;3.611111111111111;67.0
64862;BME280;62652;42.274;-71.436;2023-02-13T02:14:01;100570.0;;;3.4999999999999982;66.9
64862;BME280;62652;42.274;-71.436;2023-02-13T02:15:03;100570.0;;;3.4999999999999982;66.9
64862;BME280;62652;42.274;-71.436;2023-02-13T02:16:01;100570.0;;;3.4999999999999982;67.6
64862;BME280;62652;42.274;-71.436;2023-02-13T02:17:00;100570.0;;;3.4999999999999982;68.0
64862;BME280;62652;42.274;-71.436;2023-02-13T02:18:00;100570.0;;;3.3888888888888897;68.9
64862;BME280;62652;42.274;-71.436;2023-02-13T02:19:03;100570.0;;;3.277777777777777;70.2
64862;BME280;62652;42.274;-71.436;2023-02-13T02:20:14;100570.0;;;3.277777777777777;70.2
64862;BME280;62652;42.274;-71.436;2023-02-13T02:21:18;100580.0;;;3.2222222222222205;70.4
64862;BME280;62652;42.274;-71.436;2023-02-13T02:26:16;100560.0;;;3.2222222222222205;70.6
64862;BME280;62652;42.274;-71.436;2023-02-13T02:27:14;100560.0;;;3.277777777777777;70.6
64862;BME280;62652;42.274;-71.436;2023-02-13T02:28:19;100560.0;;;3.277777777777777;70.2
64862;BME280;62652;42.274;-71.436;2023-02-13T02:29:17;100560.0;;;3.3888888888888897;70.2
64862;BME280;62652;42.274;-71.436;2023-02-13T02:31:19;100560.0;;;3.611111111111111;68.9
64862;BME280;62652;42.274;-71.436;2023-02-13T02:32:13;100560.0;;;3.4999999999999982;68.9
64862;BME280;62652;42.274;-71.436;2023-02-13T02:33:11;100560.0;;;3.4999999999999982;69.1
64862;BME280;62652;42.274;-71.436;2023-02-13T02:34:09;100550.0;;;3.3888888888888897;69.9
64862;BME280;62652;42.274;-71.436;2023-02-13T02:35:08;100550.0;;;3.277777777777777;70.4
64862;BME280;62652;42.274;-71.436;2023-02-13T02:36:11;100550.0;;;3.277777777777777;70.8
64862;BME280;62652;42.274;-71.436;2023-02-13T02:37:12;100550.0;;;3.2222222222222205;72.1
64862;BME280;62652;42.274;-71.436;2023-02-13T02:38:11;100540.0;;;3.2222222222222205;72.4
64862;BME280;62652;42.274;-71.436;2023-02-13T02:39:07;100550.0;;;3.2222222222222205;72.4
64862;BME280;62652;42.274;-71.436;2023-02-13T02:40:10;100550.0;;;3.111111111111112;73.0
64862;BME280;62652;42.274;-71.436;2023-02-13T02:41:08;100550.0;;;3.111111111111112;72.6
64862;BME280;62652;42.274;-71.436;2023-02-13T02:42:09;100560.0;;;3.2222222222222205;72.6
64862;BME280;62652;42.274;-71.436;2023-02-13T02:43:13;100560.0;;;3.2222222222222205;72.2
64862;BME280;62652;42.274;-71.436;2023-02-13T02:44:10;100570.0;;;3.2222222222222205;72.1
64862;BME280;62652;42.274;-71.436;2023-02-13T02:45:07;100570.0;;;3.111111111111112;72.8
64862;BME280;62652;42.274;-71.436;2023-02-13T02:46:07;100560.0;;;3.111111111111112;73.6
64862;BME280;62652;42.274;-71.436;2023-02-13T02:47:08;100560.0;;;3.2222222222222205;73.8
64862;BME280;62652;42.274;-71.436;2023-02-13T02:48:06;100550.0;;;3.2222222222222205;72.5
64862;BME280;62652;42.274;-71.436;2023-02-13T02:49:04;100550.0;;;3.2222222222222205;72.3
64862;BME280;62652;42.274;-71.436;2023-02-13T02:50:13;100550.0;;;3.111111111111112;73.2
64862;BME280;62652;42.274;-71.436;2023-02-13T02:51:07;100540.0;;;3.111111111111112;73.0
64862;BME280;62652;42.274;-71.436;2023-02-13T02:52:05;100540.0;;;3.2222222222222205;72.2
64862;BME280;62652;42.274;-71.436;2023-02-13T02:53:13;100540.0;;;3.2222222222222205;71.7
64862;BME280;62652;42.274;-71.436;2023-02-13T02:54:05;100530.0;;;3.2222222222222205;71.2
64862;BME280;62652;42.274;-71.436;2023-02-13T02:55:06;100520.0;;;3.2222222222222205;71.8
64862;BME280;62652;42.274;-71.436;2023-02-13T02:56:06;100500.0;;;3.111111111111112;71.8
64862;BME280;62652;42.274;-71.436;2023-02-13T02:57:06;100500.0;;;3.111111111111112;71.5
64862;BME280;62652;42.274;-71.436;2023-02-13T02:58:07;100500.0;;;2.999999999999999;71.2
64862;BME280;62652;42.274;-71.436;2023-02-13T02:59:03;100500.0;;;2.999999999999999;71.3
64862;BME280;62652;42.274;-71.436;2023-02-13T03:00:00;100500.0;;;2.999999999999999;71.1
64862;BME280;62652;42.274;-71.436;2023-02-13T03:01:02;100500.0;;;2.999999999999999;71.3
64862;BME280;62652;42.274;-71.436;2023-02-13T03:02:01;100500.0;;;2.999999999999999;71.1
64862;BME280;62652;42.274;-71.436;2023-02-13T03:03:01;100500.0;;;2.999999999999999;70.8
64862;BME280;62652;42.274;-71.436;2023-02-13T03:04:02;100500.0;;;3.111111111111112;70.5
64862;BME280;62652;42.274;-71.436;2023-02-13T03:05:02;100500.0;;;3.111111111111112;70.3
64862;BME280;62652;42.274;-71.436;2023-02-13T03:06:03;100500.0;;;3.111111111111112;70.3
64862;BME280;62652;42.274;-71.436;2023-02-13T03:07:03;100490.0;;;3.111111111111112;70.3
64862;BME280;62652;42.274;-71.436;2023-02-13T03:08:01;100490.0;;;3.111111111111112;71.1
64862;BME280;62652;42.274;-71.436;2023-02-13T03:09:04;100480.0;;;3.111111111111112;71.3
64862;BME280;62652;42.274;-71.436;2023-02-13T03:10:04;100480.0;;;3.111111111111112;71.4
64862;BME280;62652;42.274;-71.436;2023-02-13T03:11:01;100480.0;;;2.999999999999999;71.3
64862;BME280;62652;42.274;-71.436;2023-02-13T03:12:01;100480.0;;;2.999999999999999;71.5
64862;BME280;62652;42.274;-71.436;2023-02-13T03:13:04;100490.0;;;2.8888888888888906;71.3
64862;BME280;62652;42.274;-71.436;2023-02-13T03:14:03;100490.0;;;2.999999999999999;70.1
64862;BME280;62652;42.274;-71.436;2023-02-13T03:15:01;100490.0;;;2.999999999999999;69.6
64862;BME280;62652;42.274;-71.436;2023-02-13T03:16:01;100490.0;;;2.999999999999999;69.5
64862;BME280;62652;42.274;-71.436;2023-02-13T03:17:02;100480.0;;;3.111111111111112;69.9
64862;BME280;62652;42.274;-71.436;2023-02-13T03:18:00;100480.0;;;3.111111111111112;69.3
64862;BME280;62652;42.274;-71.436;2023-02-13T03:19:01;100480.0;;;3.111111111111112;68.9
64862;BME280;62652;42.274;-71.436;2023-02-13T03:20:13;100470.0;;;3.111111111111112;68.7
64862;BME280;62652;42.274;-71.436;2023-02-13T03:21:09;100470.0;;;2.999999999999999;69.4
64862;BME280;62652;42.274;-71.436;2023-02-13T03:22:07;100460.0;;;2.999999999999999;70.5
64862;BME280;62652;42.274;-71.436;2023-02-13T03:23:10;100460.0;;;2.999999999999999;70.6
64862;BME280;62652;42.274;-71.436;2023-02-13T03:24:08;100460.0;;;2.999999999999999;70.2
64862;BME280;62652;42.274;-71.436;2023-02-13T03:25:06;100450.0;;;2.999999999999999;70.2
64862;BME280;62652;42.274;-71.436;2023-02-13T03:26:16;100440.0;;;2.999999999999999;70.0
64862;BME280;62652;42.274;-71.436;2023-02-13T03:27:07;100440.0;;;2.999999999999999;70.2
64862;BME280;62652;42.274;-71.436;2023-02-13T03:28:08;100450.0;;;2.999999999999999;70.5
64862;BME280;62652;42.274;-71.436;2023-02-13T03:29:08;100450.0;;;2.999999999999999;70.3
64862;BME280;62652;42.274;-71.436;2023-02-13T03:30:09;100450.0;;;2.999999999999999;70.4
64862;BME280;62652;42.274;-71.436;2023-02-13T03:31:07;100460.0;;;2.999999999999999;70.4
64862;BME280;62652;42.274;-71.436;2023-02-13T03:32:07;100460.0;;;2.8888888888888906;70.5
64862;BME280;62652;42.274;-71.436;2023-02-13T03:33:14;100460.0;;;2.999999999999999;70.5
64862;BME280;62652;42.274;-71.436;2023-02-13T03:34:04;100460.0;;;2.8888888888888906;70.7
64862;BME280;62652;42.274;-71.436;2023-02-13T03:35:13;100460.0;;;2.999999999999999;70.5
64862;BME280;62652;42.274;-71.436;2023-02-13T03:36:05;100460.0;;;2.8888888888888906;70.7
64862;BME280;62652;42.274;-71.436;2023-02-13T03:37:02;100460.0;;;2.7777777777777777;72.1
64862;BME280;62652;42.274;-71.436;2023-02-13T03:38:05;100460.0;;;2.8888888888888906;72.3
64862;BME280;62652;42.274;-71.436;2023-02-13T03:39:06;100460.0;;;2.7222222222222214;73.2
64862;BME280;62652;42.274;-71.436;2023-02-13T03:40:05;100460.0;;;2.6111111111111125;73.9
64862;BME280;62652;42.274;-71.436;2023-02-13T03:41:04;100460.0;;;2.6111111111111125;73.8
64862;BME280;62652;42.274;-71.436;2023-02-13T03:42:05;100460.0;;;2.6111111111111125;73.7
64862;BME280;62652;42.274;-71.436;2023-02-13T03:43:07;100460.0;;;2.6111111111111125;74.4
64862;BME280;62652;42.274;-71.436;2023-02-13T03:44:10;100460.0;;;2.5;74.7
64862;BME280;62652;42.274;-71.436;2023-02-13T03:45:03;100460.0;;;2.5;75.2
64862;BME280;62652;42.274;-71.436;2023-02-13T03:46:01;100450.0;;;2.5;75.1
64862;BME280;62652;42.274;-71.436;2023-02-13T03:47:03;100450.0;;;2.5;74.7
64862;BME280;62652;42.274;-71.436;2023-02-13T03:48:03;100440.0;;;2.6111111111111125;74.6
64862;BME280;62652;42.274;-71.436;2023-02-13T03:49:02;100430.0;;;2.6111111111111125;74.5
64862;BME280;62652;42.274;-71.436;2023-02-13T03:50:02;100430.0;;;2.6111111111111125;74.5
64862;BME280;62652;42.274;-71.436;2023-02-13T03:51:02;100430.0;;;2.5;75.3
64862;BME280;62652;42.274;-71.436;2023-02-13T03:52:05;100420.0;;;2.5;76.0
64862;BME280;62652;42.274;-71.436;2023-02-13T03:53:05;100420.0;;;2.5;76.2
64862;BME280;62652;42.274;-71.436;2023-02-13T03:54:05;100420.0;;;2.5;76.1
64862;BME280;62652;42.274;-71.436;2023-02-13T03:55:05;100420.0;;;2.5;76.4
64862;BME280;62652;42.274;-71.436;2023-02-13T03:56:01;100410.0;;;2.5;75.3
64862;BME280;62652;42.274;-71.436;2023-02-13T03:57:01;100420.0;;;2.5;75.3
64862;BME280;62652;42.274;-71.436;2023-02-13T03:58:06;100410.0;;;2.5;75.3
64862;BME280;62652;42.274;-71.436;2023-02-13T03:59:01;100410.0;;;2.5;75.1
64862;BME280;62652;42.274;-71.436;2023-02-13T04:00:04;100410.0;;;2.6111111111111125;74.2
64862;BME280;62652;42.274;-71.436;2023-02-13T04:01:04;100410.0;;;2.7222222222222214;74.1
64862;BME280;62652;42.274;-71.436;2023-02-13T04:02:07;100410.0;;;2.7222222222222214;75.0
64862;BME280;62652;42.274;-71.436;2023-02-13T04:03:12;100400.0;;;2.7222222222222214;74.5
64862;BME280;62652;42.274;-71.436;2023-02-13T04:04:06;100400.0;;;2.6111111111111125;74.6
64862;BME280;62652;42.274;-71.436;2023-02-13T04:05:07;100400.0;;;2.7222222222222214;74.4
64862;BME280;62652;42.274;-71.436;2023-02-13T04:06:05;100390.0;;;2.7222222222222214;74.1
64862;BME280;62652;42.274;-71.436;2023-02-13T04:07:04;100400.0;;;2.7222222222222214;74.0
64862;BME280;62652;42.274;-71.436;2023-02-13T04:08:00;100400.0;;;2.7222222222222214;74.7
64862;BME280;62652;42.274;-71.436;2023-02-13T04:09:01;100410.0;;;2.7777777777777777;74.5
64862;BME280;62652;42.274;-71.436;2023-02-13T04:10:03;100410.0;;;2.7777777777777777;74.5
64862;BME280;62652;42.274;-71.436;2023-02-13T04:11:07;100420.0;;;2.7222222222222214;75.1
64862;BME280;62652;42.274;-71.436;2023-02-13T04:12:05;100420.0;;;2.7777777777777777;75.2
64862;BME280;62652;42.274;-71.436;2023-02-13T04:13:09;100420.0;;;2.7777777777777777;75.7
64862;BME280;62652;42.274;-71.436;2023-02-13T04:14:05;100430.0;;;2.7777777777777777;75.8
64862;BME280;62652;42.274;-71.436;2023-02-13T04:15:06;100430.0;;;2.7222222222222214;76.3
64862;BME280;62652;42.274;-71.436;2023-02-13T04:16:06;100430.0;;;2.6111111111111125;76.4
64862;BME280;62652;42.274;-71.436;2023-02-13T04:17:04;100430.0;;;2.5;76.9
64862;BME280;62652;42.274;-71.436;2023-02-13T04:18:06;100430.0;;;2.5;77.8
64862;BME280;62652;42.274;-71.436;2023-02-13T04:19:01;100430.0;;;2.2777777777777786;79.1
64862;BME280;62652;42.274;-71.436;2023-02-13T04:20:01;100430.0;;;2.2222222222222223;79.8
64862;BME280;62652;42.274;-71.436;2023-02-13T04:21:01;100420.0;;;2.2222222222222223;80.2
64862;BME280;62652;42.274;-71.436;2023-02-13T04:22:01;100420.0;;;2.2222222222222223;80.8
64862;BME280;62652;42.274;-71.436;2023-02-13T04:23:04;100400.0;;;2.2222222222222223;81.3
64862;BME280;62652;42.274;-71.436;2023-02-13T04:24:01;100400.0;;;2.2777777777777786;81.3
64862;BME280;62652;42.274;-71.436;2023-02-13T04:25:00;100410.0;;;2.2222222222222223;81.4
64862;BME280;62652;42.274;-71.436;2023-02-13T04:26:04;100400.0;;;2.2777777777777786;81.8
64862;BME280;62652;42.274;-71.436;2023-02-13T04:27:01;100410.0;;;2.2222222222222223;82.5
64862;BME280;62652;42.274;-71.436;2023-02-13T04:28:01;100410.0;;;2.2222222222222223;82.7
64862;BME280;62652;42.274;-71.436;2023-02-13T04:29:01;100420.0;;;2.2222222222222223;82.5
64862;BME280;62652;42.274;-71.436;2023-02-13T04:30:00;100420.0;;;2.1111111111111094;82.9
64862;BME280;62652;42.274;-71.436;2023-02-13T04:31:00;100420.0;;;2.2222222222222223;83.5
64862;BME280;62652;42.274;-71.436;2023-02-13T04:32:01;100430.0;;;2.2777777777777786;82.5
64862;BME280;62652;42.274;-71.436;2023-02-13T04:33:01;100420.0;;;2.2777777777777786;81.7
64862;BME280;62652;42.274;-71.436;2023-02-13T04:34:00;100420.0;;;2.2777777777777786;81.1
64862;BME280;62652;42.274;-71.436;2023-02-13T04:35:00;100410.0;;;2.2222222222222223;81.6
64862;BME280;62652;42.274;-71.436;2023-02-13T04:36:01;100410.0;;;2.2222222222222223;82.2
64862;BME280;62652;42.274;-71.436;2023-02-13T04:37:00;100410.0;;;2.1111111111111094;82.6